createdAt,value
2019-05-10T00:00:58.828Z,9.35
2019-05-10T00:01:59.875Z,9.26
2019-05-10T00:02:58.809Z,9.19
2019-05-10T00:03:58.884Z,9.13
2019-05-10T00:04:58.787Z,9.31
2019-05-10T00:05:58.817Z,9.20
2019-05-10T00:06:58.748Z,9.17
2019-05-10T00:07:58.787Z,9.10
2019-05-10T00:08:58.739Z,9.16
2019-05-10T00:09:58.781Z,9.04
2019-05-10T00:10:58.709Z,9.00
2019-05-10T00:11:58.720Z,9.03
2019-05-10T00:12:58.711Z,8.91
2019-05-10T00:13:58.761Z,8.78
2019-05-10T00:14:58.661Z,8.76
2019-05-10T00:15:58.664Z,8.75
2019-05-10T00:16:58.642Z,8.70
2019-05-10T00:17:59.693Z,8.76
2019-05-10T00:18:58.614Z,8.60
2019-05-10T00:19:59.693Z,8.65
2019-05-10T00:20:58.606Z,8.54
2019-05-10T00:21:58.604Z,8.50
2019-05-10T00:22:58.585Z,8.46
2019-05-10T00:23:58.646Z,8.42
2019-05-10T00:25:04.286Z,8.36
2019-05-10T00:25:59.599Z,8.43
2019-05-10T00:26:58.518Z,8.46
2019-05-10T00:27:58.568Z,8.52
2019-05-10T00:28:58.505Z,8.43
2019-05-10T00:29:58.550Z,8.39
2019-05-10T00:30:58.479Z,8.39
2019-05-10T00:31:58.470Z,8.29
2019-05-10T00:32:58.472Z,8.28
2019-05-10T00:33:58.522Z,8.29
2019-05-10T00:34:58.442Z,8.28
2019-05-10T00:35:58.462Z,8.27
2019-05-10T00:36:58.424Z,8.24
2019-05-10T00:37:58.413Z,8.22
2019-05-10T00:38:59.494Z,8.21
2019-05-10T00:39:58.384Z,8.14
2019-05-10T00:40:59.425Z,8.04
2019-05-10T00:41:58.356Z,8.13
2019-05-10T00:42:58.388Z,8.00
2019-05-10T00:43:58.337Z,7.99
2019-05-10T00:44:58.367Z,7.91
2019-05-10T00:45:58.307Z,7.82
2019-05-10T00:46:58.418Z,7.79
2019-05-10T00:47:58.301Z,7.79
2019-05-10T00:48:58.351Z,7.66
2019-05-10T00:49:58.259Z,7.62
2019-05-10T00:50:59.310Z,7.52
2019-05-10T00:51:58.244Z,7.52
2019-05-10T00:52:58.253Z,7.57
2019-05-10T00:53:58.296Z,7.57
2019-05-10T00:54:58.217Z,7.55
2019-05-10T00:55:58.224Z,7.62
2019-05-10T00:56:58.184Z,7.71
2019-05-10T00:57:58.164Z,7.69
2019-05-10T00:58:58.185Z,7.63
2019-05-10T00:59:59.215Z,7.69
2019-05-10T01:00:58.155Z,7.62
2019-05-10T01:01:58.238Z,7.74
2019-05-10T01:02:58.116Z,7.58
2019-05-10T01:03:58.218Z,7.73
2019-05-10T01:04:58.088Z,7.69
2019-05-10T01:05:58.108Z,7.69
2019-05-10T01:06:58.079Z,7.76
2019-05-10T01:07:58.140Z,7.86
2019-05-10T01:08:58.061Z,8.10
2019-05-10T01:09:58.081Z,8.04
2019-05-10T01:10:58.032Z,8.13
2019-05-10T01:11:58.120Z,8.17
2019-05-10T01:12:58.001Z,8.09
2019-05-10T01:13:58.018Z,8.18
2019-05-10T01:14:57.983Z,8.31
2019-05-10T01:15:57.983Z,8.27
2019-05-10T01:16:57.954Z,8.39
2019-05-10T01:17:58.025Z,8.43
2019-05-10T01:18:57.956Z,8.54
2019-05-10T01:19:58.170Z,8.49
2019-05-10T01:20:57.905Z,8.54
2019-05-10T01:21:58.006Z,8.55
2019-05-10T01:22:57.880Z,8.60
2019-05-10T01:23:57.981Z,8.54
2019-05-10T01:24:57.869Z,8.52
2019-05-10T01:25:57.878Z,8.54
2019-05-10T01:26:57.838Z,8.55
2019-05-10T01:27:57.909Z,8.54
2019-05-10T01:28:57.830Z,8.45
2019-05-10T01:29:57.830Z,8.52
2019-05-10T01:30:57.810Z,8.55
2019-05-10T01:31:57.884Z,8.54
2019-05-10T01:32:57.782Z,8.58
2019-05-10T01:33:57.888Z,8.64
2019-05-10T01:34:57.788Z,8.67
2019-05-10T01:35:57.733Z,8.68
2019-05-10T01:36:57.825Z,8.67
2019-05-10T01:37:57.713Z,8.63
2019-05-10T01:38:57.829Z,8.63
2019-05-10T01:39:57.686Z,8.67
2019-05-10T01:40:57.685Z,8.73
2019-05-10T01:41:58.687Z,8.75
2019-05-10T01:42:57.658Z,8.68
2019-05-10T01:43:58.768Z,8.75
2019-05-10T01:44:57.641Z,8.63
2019-05-10T01:45:57.618Z,8.63
2019-05-10T01:46:57.618Z,8.63
2019-05-10T01:47:57.669Z,8.63
2019-05-10T01:48:57.611Z,8.67
2019-05-10T01:49:57.601Z,8.68
2019-05-10T01:50:57.561Z,8.75
2019-05-10T01:51:57.647Z,8.71
2019-05-10T01:52:57.559Z,8.73
2019-05-10T01:53:57.634Z,8.65
2019-05-10T01:54:57.533Z,8.71
2019-05-10T01:55:58.544Z,8.67
2019-05-10T01:56:57.534Z,8.71
2019-05-10T01:57:57.554Z,8.76
2019-05-10T01:58:57.485Z,8.71
2019-05-10T01:59:58.574Z,8.75
2019-05-10T02:00:57.458Z,8.73
2019-05-10T02:01:57.437Z,8.82
2019-05-10T02:02:57.499Z,8.91
2019-05-10T02:03:57.451Z,8.83
2019-05-10T02:04:57.440Z,8.89
2019-05-10T02:05:57.388Z,8.94
2019-05-10T02:06:57.380Z,8.91
2019-05-10T02:07:57.380Z,8.91
2019-05-10T02:08:57.400Z,8.93
2019-05-10T02:09:57.362Z,8.96
2019-05-10T02:10:57.446Z,8.94
2019-05-10T02:11:58.434Z,8.98
2019-05-10T02:12:57.402Z,8.98
2019-05-10T02:13:57.344Z,9.00
2019-05-10T02:14:57.314Z,9.08
2019-05-10T02:15:57.384Z,9.12
2019-05-10T02:16:57.267Z,9.03
2019-05-10T02:17:59.364Z,8.98
2019-05-10T02:18:57.247Z,9.10
2019-05-10T02:19:57.307Z,9.12
2019-05-10T02:20:57.215Z,9.08
2019-05-10T02:21:57.287Z,9.12
2019-05-10T02:22:57.221Z,9.12
2019-05-10T02:23:57.228Z,9.10
2019-05-10T02:24:57.189Z,9.13
2019-05-10T02:26:08.892Z,9.17
2019-05-10T02:26:58.160Z,9.19
2019-05-10T02:27:57.152Z,9.08
2019-05-10T02:28:57.130Z,9.22
2019-05-10T02:29:57.182Z,9.20
2019-05-10T02:30:57.111Z,9.17
2019-05-10T02:31:57.185Z,9.20
2019-05-10T02:32:57.143Z,9.24
2019-05-10T02:33:57.074Z,9.22
2019-05-10T02:34:57.124Z,9.30
2019-05-10T02:35:57.046Z,9.19
2019-05-10T02:36:59.056Z,9.08
2019-05-10T02:37:57.037Z,9.17
2019-05-10T02:38:58.076Z,9.17
2019-05-10T02:39:57.007Z,9.20
2019-05-10T02:40:57.087Z,9.24
2019-05-10T02:41:56.979Z,9.16
2019-05-10T02:42:57.031Z,9.17
2019-05-10T02:43:56.959Z,9.24
2019-05-10T02:44:58.019Z,9.22
2019-05-10T02:45:56.950Z,9.16
2019-05-10T02:46:56.999Z,9.17
2019-05-10T02:47:56.925Z,9.15
2019-05-10T02:48:56.908Z,9.13
2019-05-10T02:49:59.138Z,9.16
2019-05-10T02:50:56.978Z,9.15
2019-05-10T02:51:56.873Z,9.19
2019-05-10T02:52:56.903Z,9.20
2019-05-10T02:53:56.873Z,9.22
2019-05-10T02:54:56.863Z,9.19
2019-05-10T02:55:57.025Z,9.19
2019-05-10T02:56:56.819Z,9.17
2019-05-10T02:57:57.876Z,9.22
2019-05-10T02:58:56.820Z,9.20
2019-05-10T02:59:56.828Z,9.20
2019-05-10T03:00:56.776Z,9.20
2019-05-10T03:01:56.818Z,9.26
2019-05-10T03:02:56.767Z,9.20
2019-05-10T03:03:56.859Z,9.27
2019-05-10T03:04:56.771Z,9.24
2019-05-10T03:05:56.800Z,9.23
2019-05-10T03:06:56.712Z,9.22
2019-05-10T03:07:56.739Z,9.30
2019-05-10T03:08:56.695Z,9.23
2019-05-10T03:09:56.705Z,9.31
2019-05-10T03:10:56.672Z,9.19
2019-05-10T03:11:56.703Z,9.20
2019-05-10T03:12:56.644Z,9.30
2019-05-10T03:13:56.744Z,9.26
2019-05-10T03:14:56.655Z,9.23
2019-05-10T03:15:56.676Z,9.31
2019-05-10T03:16:56.605Z,9.30
2019-05-10T03:17:56.623Z,9.30
2019-05-10T03:18:56.580Z,9.30
2019-05-10T03:19:56.686Z,9.35
2019-05-10T03:20:56.619Z,9.34
2019-05-10T03:21:56.549Z,9.24
2019-05-10T03:22:56.552Z,9.24
2019-05-10T03:23:56.524Z,9.38
2019-05-10T03:24:56.648Z,9.37
2019-05-10T03:25:56.513Z,9.34
2019-05-10T03:26:56.522Z,9.35
2019-05-10T03:27:56.471Z,9.32
2019-05-10T03:28:58.511Z,9.42
2019-05-10T03:29:56.482Z,9.27
2019-05-10T03:30:56.444Z,9.41
2019-05-10T03:31:56.434Z,9.38
2019-05-10T03:32:58.484Z,9.24
2019-05-10T03:33:57.824Z,9.34
2019-05-10T03:34:56.545Z,9.30
2019-05-10T03:35:56.389Z,9.31
2019-05-10T03:36:56.386Z,9.30
2019-05-10T03:37:57.397Z,9.27
2019-05-10T03:38:56.356Z,9.32
2019-05-10T03:39:56.458Z,9.35
2019-05-10T03:40:56.341Z,9.24
2019-05-10T03:41:56.338Z,9.27
2019-05-10T03:42:56.308Z,9.27
2019-05-10T03:43:56.389Z,9.37
2019-05-10T03:44:56.300Z,9.32
2019-05-10T03:45:56.360Z,9.31
2019-05-10T03:46:56.267Z,9.48
2019-05-10T03:47:56.361Z,9.42
2019-05-10T03:48:56.251Z,9.40
2019-05-10T03:49:56.293Z,9.45
2019-05-10T03:50:56.234Z,9.53
2019-05-10T03:51:56.235Z,9.52
2019-05-10T03:52:56.207Z,9.45
2019-05-10T03:53:56.265Z,9.48
2019-05-10T03:54:56.175Z,9.41
2019-05-10T03:55:56.254Z,9.37
2019-05-10T03:57:11.736Z,9.40
2019-05-10T03:57:57.145Z,9.34
2019-05-10T03:58:58.157Z,9.37
2019-05-10T03:59:56.129Z,9.24
2019-05-10T04:00:56.189Z,9.27
2019-05-10T04:01:56.099Z,9.26
2019-05-10T04:02:56.100Z,9.31
2019-05-10T04:03:56.080Z,9.37
2019-05-10T04:04:57.139Z,9.27
2019-05-10T04:05:56.077Z,9.37
2019-05-10T04:06:57.082Z,9.41
2019-05-10T04:07:56.041Z,9.38
2019-05-10T04:08:56.082Z,9.41
2019-05-10T04:09:56.007Z,9.53
2019-05-10T04:10:57.095Z,9.55
2019-05-10T04:11:55.999Z,9.53
2019-05-10T04:12:56.063Z,9.52
2019-05-10T04:13:55.965Z,9.44
2019-05-10T04:14:57.024Z,9.37
2019-05-10T04:15:55.971Z,9.41
2019-05-10T04:16:56.036Z,9.31
2019-05-10T04:17:55.922Z,9.30
2019-05-10T04:18:55.916Z,9.34
2019-05-10T04:19:55.907Z,9.26
2019-05-10T04:20:55.947Z,9.08
2019-05-10T04:21:55.869Z,9.06
2019-05-10T04:22:55.949Z,9.12
2019-05-10T04:23:56.944Z,9.01
2019-05-10T04:24:55.848Z,9.03
2019-05-10T04:25:55.891Z,8.86
2019-05-10T04:26:55.831Z,8.88
2019-05-10T04:27:56.911Z,8.94
2019-05-10T04:28:55.792Z,8.96
2019-05-10T04:29:55.783Z,8.91
2019-05-10T04:30:55.866Z,8.91
2019-05-10T04:31:55.765Z,8.83
2019-05-10T04:32:55.823Z,8.73
2019-05-10T04:33:55.744Z,8.71
2019-05-10T04:34:55.740Z,8.70
2019-05-10T04:35:55.740Z,8.61
2019-05-10T04:36:55.798Z,8.71
2019-05-10T04:37:55.706Z,8.63
2019-05-10T04:38:56.770Z,8.63
2019-05-10T04:39:55.706Z,8.55
2019-05-10T04:40:55.678Z,8.52
2019-05-10T04:41:55.754Z,8.50
2019-05-10T04:42:55.649Z,8.50
2019-05-10T04:43:56.702Z,8.37
2019-05-10T04:44:55.630Z,8.42
2019-05-10T04:45:55.629Z,8.36
2019-05-10T04:46:56.711Z,8.45
2019-05-10T04:47:55.697Z,8.45
2019-05-10T04:48:55.623Z,8.55
2019-05-10T04:49:55.571Z,8.58
2019-05-10T04:50:55.582Z,8.50
2019-05-10T04:51:55.543Z,8.61
2019-05-10T04:52:55.594Z,8.65
2019-05-10T04:53:55.533Z,8.73
2019-05-10T04:54:55.633Z,8.91
2019-05-10T04:55:55.527Z,9.12
2019-05-10T04:56:59.753Z,9.26
2019-05-10T04:57:55.486Z,9.30
2019-05-10T04:58:55.506Z,9.35
2019-05-10T04:59:55.457Z,9.52
2019-05-10T05:00:55.544Z,9.67
2019-05-10T05:01:55.559Z,9.70
2019-05-10T05:02:55.418Z,9.89
2019-05-10T05:03:55.439Z,10.17
2019-05-10T05:04:55.399Z,10.47
2019-05-10T05:05:55.480Z,10.55
2019-05-10T05:06:55.401Z,10.62
2019-05-10T05:07:56.441Z,10.62
2019-05-10T05:08:55.373Z,10.68
2019-05-10T05:09:55.454Z,10.66
2019-05-10T05:10:55.333Z,10.65
2019-05-10T05:11:55.343Z,10.98
2019-05-10T05:12:55.324Z,11.19
2019-05-10T05:13:55.324Z,11.28
2019-05-10T05:14:55.295Z,11.38
2019-05-10T05:15:55.355Z,11.59
2019-05-10T05:16:55.296Z,11.64
2019-05-10T05:17:55.269Z,11.74
2019-05-10T05:18:55.368Z,11.87
2019-05-10T05:19:55.237Z,11.74
2019-05-10T05:20:55.307Z,11.77
2019-05-10T05:21:55.237Z,11.75
2019-05-10T05:22:55.218Z,12.04
2019-05-10T05:23:55.189Z,12.33
2019-05-10T05:25:01.256Z,12.19
2019-05-10T05:25:56.180Z,12.16
2019-05-10T05:26:55.260Z,12.07
2019-05-10T05:28:07.184Z,12.18
2019-05-10T05:28:56.151Z,12.30
2019-05-10T05:29:56.242Z,12.38
2019-05-10T05:30:55.114Z,12.44
2019-05-10T05:32:01.295Z,12.54
2019-05-10T05:32:57.078Z,12.52
2019-05-10T05:33:59.146Z,12.49
2019-05-10T05:35:00.984Z,12.44
2019-05-10T05:35:55.075Z,12.44
2019-05-10T05:36:55.246Z,12.33
2019-05-10T05:37:55.049Z,12.38
2019-05-10T05:38:55.025Z,12.59
2019-05-10T05:39:55.026Z,12.61
2019-05-10T05:40:56.108Z,12.66
2019-05-10T05:41:56.661Z,12.55
2019-05-10T05:42:54.998Z,12.49
2019-05-10T05:43:54.970Z,12.61
2019-05-10T05:44:55.050Z,12.70
2019-05-10T05:45:54.954Z,12.46
2019-05-10T05:46:55.021Z,12.49
2019-05-10T05:47:54.941Z,12.49
2019-05-10T05:48:55.020Z,12.49
2019-05-10T05:49:54.982Z,12.44
2019-05-10T05:50:54.913Z,12.46
2019-05-10T05:51:54.962Z,12.41
2019-05-10T05:52:54.887Z,12.40
2019-05-10T05:53:54.990Z,12.48
2019-05-10T05:54:57.620Z,12.51
2019-05-10T05:55:54.849Z,12.59
2019-05-10T05:56:54.905Z,12.62
2019-05-10T05:57:59.127Z,12.52
2019-05-10T05:58:55.815Z,12.56
2019-05-10T05:59:57.320Z,12.59
2019-05-10T06:00:55.787Z,13.50
2019-05-10T06:02:55.758Z,14.30
2019-05-10T06:04:00.032Z,14.19
2019-05-10T06:04:55.741Z,14.12
2019-05-10T06:05:54.731Z,14.05
2019-05-10T06:06:59.167Z,14.17
2019-05-10T06:07:55.722Z,13.91
2019-05-10T06:08:59.503Z,13.80
2019-05-10T06:09:55.684Z,13.73
2019-05-10T06:10:57.558Z,13.71
2019-05-10T06:11:55.874Z,14.41
2019-05-10T06:12:54.654Z,15.40
2019-05-10T06:14:03.691Z,15.37
2019-05-10T06:14:55.644Z,15.41
2019-05-10T06:15:54.634Z,15.25
2019-05-10T06:16:54.596Z,14.95
2019-05-10T06:17:57.261Z,16.17
2019-05-10T06:18:54.597Z,16.07
2019-05-10T06:19:54.719Z,15.37
2019-05-10T06:20:54.578Z,15.48
2019-05-10T06:21:58.175Z,14.79
2019-05-10T06:23:06.215Z,14.35
2019-05-10T06:23:59.080Z,14.29
2019-05-10T06:24:55.587Z,14.60
2019-05-10T06:25:54.522Z,16.85
2019-05-10T06:26:58.193Z,17.51
2019-05-10T06:27:55.503Z,19.52
2019-05-10T06:28:59.473Z,21.12
2019-05-10T06:29:55.475Z,22.41
2019-05-10T06:30:54.574Z,21.33
2019-05-10T06:31:54.444Z,19.39
2019-05-10T06:33:00.760Z,17.91
2019-05-10T06:33:55.435Z,16.81
2019-05-10T06:34:54.447Z,16.03
2019-05-10T06:35:54.395Z,15.53
2019-05-10T06:36:54.386Z,15.48
2019-05-10T06:37:54.407Z,15.43
2019-05-10T06:38:54.419Z,15.25
2019-05-10T06:39:54.368Z,17.99
2019-05-10T06:40:54.449Z,20.48
2019-05-10T06:41:56.340Z,21.79
2019-05-10T06:42:54.455Z,22.27
2019-05-10T06:43:54.314Z,20.05
2019-05-10T06:44:55.341Z,17.71
2019-05-10T06:45:54.301Z,16.22
2019-05-10T06:46:54.351Z,15.20
2019-05-10T06:47:54.285Z,14.61
2019-05-10T06:48:54.293Z,14.27
2019-05-10T06:49:54.254Z,14.13
2019-05-10T06:50:54.324Z,14.08
2019-05-10T06:51:54.225Z,13.71
2019-05-10T06:52:54.238Z,13.51
2019-05-10T06:53:55.266Z,13.43
2019-05-10T06:54:54.198Z,13.32
2019-05-10T06:55:55.286Z,13.14
2019-05-10T06:56:54.177Z,13.09
2019-05-10T06:57:59.593Z,12.91
2019-05-10T06:58:55.204Z,12.69
2019-05-10T06:59:56.469Z,12.52
2019-05-10T07:00:55.131Z,12.49
2019-05-10T07:01:54.170Z,12.46
2019-05-10T07:02:54.140Z,12.41
2019-05-10T07:03:54.111Z,12.41
2019-05-10T07:04:54.082Z,12.43
2019-05-10T07:05:54.192Z,12.46
2019-05-10T07:06:54.073Z,12.54
2019-05-10T07:08:00.685Z,12.77
2019-05-10T07:08:57.986Z,12.95
2019-05-10T07:10:12.249Z,14.26
2019-05-10T07:10:55.006Z,14.35
2019-05-10T07:11:54.065Z,16.91
2019-05-10T07:12:57.011Z,19.57
2019-05-10T07:13:54.986Z,21.99
2019-05-10T07:14:57.896Z,22.76
2019-05-10T07:15:54.958Z,22.36
2019-05-10T07:17:02.644Z,19.94
2019-05-10T07:17:53.928Z,18.66
2019-05-10T07:18:54.697Z,17.55
2019-05-10T07:19:55.339Z,16.95
2019-05-10T07:20:53.981Z,16.32
2019-05-10T07:21:53.881Z,15.93
2019-05-10T07:22:59.999Z,15.16
2019-05-10T07:23:54.881Z,14.61
2019-05-10T07:24:57.403Z,14.19
2019-05-10T07:25:54.823Z,14.01
2019-05-10T07:26:56.678Z,13.80
2019-05-10T07:27:54.829Z,13.75
2019-05-10T07:28:57.739Z,13.66
2019-05-10T07:29:55.825Z,13.73
2019-05-10T07:30:53.788Z,13.73
2019-05-10T07:31:53.830Z,13.72
2019-05-10T07:32:54.541Z,13.69
2019-05-10T07:33:54.820Z,14.01
2019-05-10T07:34:59.025Z,14.64
2019-05-10T07:35:54.819Z,15.19
2019-05-10T07:36:53.711Z,15.31
2019-05-10T07:37:53.730Z,15.35
2019-05-10T07:38:53.711Z,15.46
2019-05-10T07:39:53.760Z,15.46
2019-05-10T07:40:53.664Z,15.48
2019-05-10T07:41:53.702Z,15.41
2019-05-10T07:42:53.652Z,15.41
2019-05-10T07:43:53.684Z,15.51
2019-05-10T07:44:53.624Z,15.23
2019-05-10T07:45:58.519Z,15.07
2019-05-10T07:46:58.333Z,15.22
2019-05-10T07:47:53.654Z,15.05
2019-05-10T07:48:53.926Z,14.98
2019-05-10T07:50:03.922Z,14.93
2019-05-10T07:50:54.557Z,14.78
2019-05-10T07:51:53.577Z,14.67
2019-05-10T07:52:53.529Z,14.69
2019-05-10T07:53:56.859Z,14.61
2019-05-10T07:54:54.502Z,14.31
2019-05-10T07:55:53.551Z,14.31
2019-05-10T07:56:53.519Z,14.13
2019-05-10T07:57:53.498Z,14.20
2019-05-10T07:58:53.503Z,14.31
2019-05-10T07:59:57.572Z,14.39
2019-05-10T08:00:56.165Z,14.42
2019-05-10T08:01:53.438Z,14.16
2019-05-10T08:03:03.173Z,14.08
2019-05-10T08:03:54.413Z,14.09
2019-05-10T08:04:53.805Z,13.96
2019-05-10T08:05:56.969Z,14.12
2019-05-10T08:06:54.425Z,14.48
2019-05-10T08:07:53.356Z,14.61
2019-05-10T08:08:55.315Z,15.68
2019-05-10T08:09:54.327Z,18.86
2019-05-10T08:10:53.368Z,20.20
2019-05-10T08:11:54.095Z,21.82
2019-05-10T08:12:54.302Z,21.13
2019-05-10T08:13:57.833Z,20.42
2019-05-10T08:14:54.271Z,21.34
2019-05-10T08:15:53.320Z,22.89
2019-05-10T08:16:58.472Z,22.04
2019-05-10T08:17:54.242Z,21.18
2019-05-10T08:18:55.652Z,20.01
2019-05-10T08:19:54.212Z,19.94
2019-05-10T08:20:57.781Z,21.58
2019-05-10T08:22:00.507Z,20.73
2019-05-10T08:22:54.215Z,19.40
2019-05-10T08:23:54.095Z,18.75
2019-05-10T08:24:56.345Z,17.77
2019-05-10T08:25:53.592Z,17.92
2019-05-10T08:26:55.612Z,17.33
2019-05-10T08:27:55.438Z,16.73
2019-05-10T08:28:53.108Z,16.69
2019-05-10T08:30:17.814Z,16.32
2019-05-10T08:30:58.860Z,15.93
2019-05-10T08:31:56.059Z,15.55
2019-05-10T08:32:53.090Z,15.58
2019-05-10T08:33:58.850Z,15.68
2019-05-10T08:34:55.938Z,15.67
2019-05-10T08:36:00.756Z,15.40
2019-05-10T08:36:54.024Z,15.64
2019-05-10T08:37:53.113Z,15.28
2019-05-10T08:39:03.396Z,15.20
2019-05-10T08:39:55.888Z,15.27
2019-05-10T08:40:53.113Z,15.44
2019-05-10T08:42:04.123Z,15.81
2019-05-10T08:43:02.347Z,15.86
2019-05-10T08:43:53.937Z,15.78
2019-05-10T08:45:03.211Z,15.73
2019-05-10T08:45:53.919Z,15.71
2019-05-10T08:46:52.932Z,15.44
2019-05-10T08:48:00.847Z,15.27
2019-05-10T08:48:54.076Z,15.40
2019-05-10T08:50:06.282Z,15.15
2019-05-10T08:50:57.440Z,15.30
2019-05-10T08:51:53.904Z,15.88
2019-05-10T08:52:56.778Z,16.13
2019-05-10T08:53:58.026Z,15.93
2019-05-10T08:54:55.370Z,16.14
2019-05-10T08:55:52.804Z,16.22
2019-05-10T08:57:00.875Z,16.45
2019-05-10T08:57:53.794Z,16.75
2019-05-10T08:58:53.609Z,16.90
2019-05-10T08:59:54.122Z,17.06
2019-05-10T09:01:10.148Z,17.05
2019-05-10T09:01:53.930Z,17.06
2019-05-10T09:02:52.826Z,16.98
2019-05-10T09:03:59.900Z,16.96
2019-05-10T09:04:53.734Z,17.28
2019-05-10T09:05:52.753Z,16.62
2019-05-10T09:06:58.528Z,16.16
2019-05-10T09:07:53.770Z,15.76
2019-05-10T09:09:01.368Z,15.73
2019-05-10T09:09:53.676Z,15.53
2019-05-10T09:10:53.099Z,15.66
2019-05-10T09:11:57.778Z,15.62
2019-05-10T09:12:57.899Z,15.78
2019-05-10T09:13:53.385Z,15.74
2019-05-10T09:14:57.602Z,15.74
2019-05-10T09:15:56.784Z,15.56
2019-05-10T09:17:00.655Z,15.48
2019-05-10T09:17:53.556Z,15.37
2019-05-10T09:18:53.519Z,15.40
2019-05-10T09:19:52.547Z,15.25
2019-05-10T09:20:54.263Z,15.22
2019-05-10T09:21:55.025Z,15.01
2019-05-10T09:22:52.957Z,14.94
2019-05-10T09:24:01.190Z,14.83
2019-05-10T09:24:53.502Z,14.71
2019-05-10T09:25:52.486Z,14.85
2019-05-10T09:26:56.857Z,14.87
2019-05-10T09:27:53.078Z,15.18
2019-05-10T09:28:56.161Z,15.31
2019-05-10T09:29:53.524Z,15.18
2019-05-10T09:31:00.482Z,15.18
2019-05-10T09:31:53.572Z,15.34
2019-05-10T09:32:52.475Z,15.51
2019-05-10T09:33:54.372Z,15.60
2019-05-10T09:34:54.409Z,15.53
2019-05-10T09:35:55.077Z,15.46
2019-05-10T09:36:53.062Z,15.38
2019-05-10T09:37:53.967Z,15.28
2019-05-10T09:38:53.329Z,15.19
2019-05-10T09:40:04.245Z,15.37
2019-05-10T09:40:56.331Z,15.67
2019-05-10T09:41:52.881Z,15.67
2019-05-10T09:42:52.424Z,15.70
2019-05-10T09:43:53.818Z,15.98
2019-05-10T09:44:52.756Z,16.22
2019-05-10T09:45:53.031Z,16.18
2019-05-10T09:46:52.582Z,16.17
2019-05-10T09:47:52.999Z,16.29
2019-05-10T09:48:54.522Z,16.27
2019-05-10T09:49:58.646Z,16.30
2019-05-10T09:50:56.357Z,16.16
2019-05-10T09:51:55.001Z,15.76
2019-05-10T09:52:52.218Z,15.41
2019-05-10T09:53:52.159Z,15.35
2019-05-10T09:54:52.150Z,15.16
2019-05-10T09:56:01.717Z,15.15
2019-05-10T09:56:53.111Z,15.05
2019-05-10T09:57:53.190Z,15.01
2019-05-10T09:58:52.101Z,14.97
2019-05-10T09:59:52.081Z,15.25
2019-05-10T10:00:52.085Z,15.33
2019-05-10T10:01:52.142Z,15.48
2019-05-10T10:02:56.563Z,15.56
2019-05-10T10:03:53.112Z,15.71
2019-05-10T10:04:52.024Z,16.01
2019-05-10T10:05:55.148Z,16.01
2019-05-10T10:06:53.043Z,15.92
2019-05-10T10:07:52.035Z,16.40
2019-05-10T10:08:53.445Z,16.62
2019-05-10T10:09:52.086Z,16.59
2019-05-10T10:10:51.970Z,16.78
2019-05-10T10:11:57.613Z,17.05
2019-05-10T10:12:58.459Z,17.33
2019-05-10T10:13:59.026Z,17.49
2019-05-10T10:14:52.943Z,17.32
2019-05-10T10:15:52.459Z,17.27
2019-05-10T10:16:58.403Z,16.95
2019-05-10T10:17:52.871Z,16.80
2019-05-10T10:18:52.916Z,16.78
2019-05-10T10:19:51.855Z,16.27
2019-05-10T10:20:51.989Z,15.99
2019-05-10T10:21:52.914Z,16.03
2019-05-10T10:22:54.468Z,16.13
2019-05-10T10:23:51.835Z,16.55
2019-05-10T10:24:54.688Z,16.57
2019-05-10T10:25:52.836Z,16.63
2019-05-10T10:26:53.862Z,16.60
2019-05-10T10:27:51.809Z,16.41
2019-05-10T10:28:55.245Z,16.52
2019-05-10T10:29:52.757Z,16.41
2019-05-10T10:30:58.883Z,16.45
2019-05-10T10:31:55.948Z,16.59
2019-05-10T10:32:52.709Z,16.36
2019-05-10T10:33:58.171Z,16.42
2019-05-10T10:34:54.866Z,16.52
2019-05-10T10:35:56.196Z,16.23
2019-05-10T10:36:52.708Z,15.91
2019-05-10T10:37:51.652Z,15.49
2019-05-10T10:38:51.678Z,15.33
2019-05-10T10:39:54.522Z,15.13
2019-05-10T10:40:52.635Z,14.85
2019-05-10T10:41:52.684Z,14.91
2019-05-10T10:42:51.597Z,14.86
2019-05-10T10:43:51.586Z,14.49
2019-05-10T10:44:51.667Z,14.59
2019-05-10T10:45:51.593Z,14.71
2019-05-10T10:46:51.598Z,14.91
2019-05-10T10:47:51.548Z,15.20
2019-05-10T10:48:51.604Z,15.43
2019-05-10T10:49:51.610Z,15.77
2019-05-10T10:50:55.697Z,16.01
2019-05-10T10:51:53.630Z,15.98
2019-05-10T10:52:51.491Z,15.88
2019-05-10T10:53:54.615Z,15.51
2019-05-10T10:54:51.473Z,15.40
2019-05-10T10:55:54.370Z,15.44
2019-05-10T10:56:51.453Z,15.55
2019-05-10T10:57:51.455Z,15.43
2019-05-10T10:58:51.415Z,15.33
2019-05-10T10:59:51.407Z,15.31
2019-05-10T11:00:51.397Z,15.43
2019-05-10T11:02:23.241Z,15.44
2019-05-10T11:02:53.688Z,15.38
2019-05-10T11:03:51.350Z,15.49
2019-05-10T11:04:52.449Z,15.70
2019-05-10T11:05:51.348Z,15.67
2019-05-10T11:07:08.794Z,15.59
2019-05-10T11:07:52.321Z,15.43
2019-05-10T11:08:53.354Z,15.43
2019-05-10T11:09:53.853Z,15.44
2019-05-10T11:10:52.354Z,15.51
2019-05-10T11:11:51.693Z,15.48
2019-05-10T11:12:51.443Z,15.77
2019-05-10T11:13:58.192Z,15.74
2019-05-10T11:14:52.233Z,15.76
2019-05-10T11:15:51.749Z,15.64
2019-05-10T11:16:55.430Z,15.85
2019-05-10T11:17:52.245Z,16.01
2019-05-10T11:18:51.888Z,16.10
2019-05-10T11:19:52.268Z,16.08
2019-05-10T11:20:53.917Z,16.13
2019-05-10T11:21:51.505Z,16.26
2019-05-10T11:22:53.560Z,16.33
2019-05-10T11:23:51.128Z,16.57
2019-05-10T11:24:59.719Z,16.80
2019-05-10T11:25:56.426Z,16.82
2019-05-10T11:26:51.770Z,16.77
2019-05-10T11:27:53.860Z,16.77
2019-05-10T11:28:52.202Z,16.57
2019-05-10T11:29:54.891Z,16.66
2019-05-10T11:30:51.349Z,16.75
2019-05-10T11:32:11.314Z,16.90
2019-05-10T11:32:52.044Z,16.57
2019-05-10T11:33:56.088Z,16.45
2019-05-10T11:34:52.018Z,16.42
2019-05-10T11:35:51.468Z,16.36
2019-05-10T11:36:51.286Z,16.65
2019-05-10T11:37:51.077Z,16.72
2019-05-10T11:38:55.500Z,16.80
2019-05-10T11:39:52.041Z,16.66
2019-05-10T11:40:50.954Z,16.52
2019-05-10T11:41:52.827Z,16.55
2019-05-10T11:42:51.943Z,16.44
2019-05-10T11:43:50.937Z,16.54
2019-05-10T11:44:54.626Z,16.70
2019-05-10T11:45:51.514Z,16.60
2019-05-10T11:46:50.968Z,16.91
2019-05-10T11:47:54.485Z,16.87
2019-05-10T11:48:51.894Z,17.10
2019-05-10T11:49:51.036Z,17.27
2019-05-10T11:50:51.504Z,17.46
2019-05-10T11:51:54.737Z,17.86
2019-05-10T11:52:51.816Z,17.66
2019-05-10T11:53:55.388Z,17.63
2019-05-10T11:54:51.847Z,17.57
2019-05-10T11:55:51.746Z,17.80
2019-05-10T11:56:52.334Z,17.87
2019-05-10T11:58:55.420Z,17.54
2019-05-10T11:59:51.478Z,17.43
2019-05-10T12:00:58.869Z,17.49
2019-05-10T12:01:58.091Z,17.35
2019-05-10T12:03:12.590Z,17.32
2019-05-10T12:03:51.710Z,17.12
2019-05-10T12:04:52.668Z,17.12
2019-05-10T12:05:53.183Z,16.90
2019-05-10T12:06:51.666Z,16.96
2019-05-10T12:07:53.287Z,17.03
2019-05-10T12:08:56.837Z,17.00
2019-05-10T12:10:03.123Z,17.00
2019-05-10T12:10:53.752Z,16.95
2019-05-10T12:11:52.299Z,16.87
2019-05-10T12:13:06.061Z,16.85
2019-05-10T12:13:52.962Z,17.00
2019-05-10T12:14:54.083Z,16.95
2019-05-10T12:15:52.021Z,17.00
2019-05-10T12:16:54.647Z,16.90
2019-05-10T12:17:57.995Z,16.95
2019-05-10T12:19:05.518Z,16.96
2019-05-10T12:19:56.226Z,17.03
2019-05-10T12:20:59.828Z,17.10
2019-05-10T12:22:51.967Z,17.53
2019-05-10T12:23:55.587Z,17.35
2019-05-10T12:25:06.050Z,17.54
2019-05-10T12:26:00.229Z,17.57
2019-05-10T12:26:05.557Z,17.40
2019-05-10T12:26:50.632Z,17.51
2019-05-10T12:27:17.185Z,17.73
2019-05-10T12:27:52.371Z,17.49
2019-05-10T12:28:51.095Z,17.57
2019-05-10T12:29:55.512Z,17.38
2019-05-10T12:30:52.428Z,17.49
2019-05-10T12:31:53.356Z,17.58
2019-05-10T12:32:56.053Z,17.80
2019-05-10T12:33:50.709Z,17.91
2019-05-10T12:34:54.720Z,17.98
2019-05-10T12:35:51.341Z,18.05
2019-05-10T12:36:51.954Z,17.84
2019-05-10T12:37:54.188Z,17.77
2019-05-10T12:38:50.435Z,17.53
2019-05-10T12:39:52.872Z,17.51
2019-05-10T12:40:51.385Z,17.62
2019-05-10T12:41:53.010Z,17.65
2019-05-10T12:42:50.336Z,17.81
2019-05-10T12:43:51.704Z,17.68
2019-05-10T12:44:51.969Z,17.60
2019-05-10T12:45:51.760Z,17.71
2019-05-10T12:46:50.936Z,17.80
2019-05-10T12:47:51.655Z,17.60
2019-05-10T12:48:51.695Z,17.32
2019-05-10T12:49:53.954Z,17.25
2019-05-10T12:50:54.932Z,17.45
2019-05-10T12:51:51.335Z,17.38
2019-05-10T12:53:02.635Z,17.09
2019-05-10T12:53:52.089Z,17.00
2019-05-10T12:54:50.222Z,17.00
2019-05-10T12:55:50.255Z,17.00
2019-05-10T12:56:50.264Z,17.07
2019-05-10T12:57:50.123Z,17.49
2019-05-10T12:58:56.740Z,17.73
2019-05-10T12:59:53.225Z,18.02
2019-05-10T13:00:52.614Z,18.10
2019-05-10T13:01:52.147Z,18.35
2019-05-10T13:02:53.406Z,18.54
2019-05-10T13:03:50.137Z,18.44